sensor_id;sensor_type;location;lat;lon;timestamp;pressure;altitude;pressure_sealevel;temperature;humidity
9474;BME280;8865;47.636;7.692;2023-05-21T00:01:03;97855.56;;;14.49;nan
9474;BME280;8865;47.636;7.692;2023-05-21T00:03:32;97858.19;;;14.49;nan
9474;BME280;8865;47.636;7.692;2023-05-21T00:06:00;97858.03;;;14.50;nan
9474;BME280;8865;47.636;7.692;2023-05-21T00:08:28;97851.75;;;14.51;nan
9474;BME280;8865;47.636;7.692;2023-05-21T00:10:54;97853.56;;;14.51;nan
9474;BME280;8865;47.636;7.692;2023-05-21T00:13:20;97853.72;;;14.49;nan
9474;BME280;8865;47.636;7.692;2023-05-21T00:15:46;97863.63;;;14.47;nan
9474;BME280;8865;47.636;7.692;2023-05-21T00:18:12;97862.78;;;14.46;nan
9474;BME280;8865;47.636;7.692;2023-05-21T00:20:38;97865.59;;;14.45;nan
9474;BME280;8865;47.636;7.692;2023-05-21T00:23:06;97858.69;;;14.44;nan
9474;BME280;8865;47.636;7.692;2023-05-21T00:25:32;97863.13;;;14.43;nan
9474;BME280;8865;47.636;7.692;2023-05-21T00:27:59;97856.41;;;14.41;nan
9474;BME280;8865;47.636;7.692;2023-05-21T00:30:25;97864.28;;;14.41;nan
9474;BME280;8865;47.636;7.692;2023-05-21T00:32:51;97856.41;;;14.41;nan
9474;BME280;8865;47.636;7.692;2023-05-21T00:35:17;97847.66;;;14.32;nan
9474;BME280;8865;47.636;7.692;2023-05-21T00:37:44;97853.75;;;14.33;nan
9474;BME280;8865;47.636;7.692;2023-05-21T00:40:10;97850.28;;;14.32;nan
9474;BME280;8865;47.636;7.692;2023-05-21T00:42:36;97849.31;;;14.33;nan
9474;BME280;8865;47.636;7.692;2023-05-21T00:45:05;97840.75;;;14.31;nan
9474;BME280;8865;47.636;7.692;2023-05-21T00:47:32;97837.78;;;14.26;nan
9474;BME280;8865;47.636;7.692;2023-05-21T00:49:58;97841.06;;;14.28;nan
9474;BME280;8865;47.636;7.692;2023-05-21T00:52:24;97840.91;;;14.29;nan
9474;BME280;8865;47.636;7.692;2023-05-21T00:54:52;97843.53;;;14.29;nan
9474;BME280;8865;47.636;7.692;2023-05-21T00:57:18;97841.06;;;14.28;nan
9474;BME280;8865;47.636;7.692;2023-05-21T00:59:51;97846.16;;;14.29;nan
9474;BME280;8865;47.636;7.692;2023-05-21T01:02:18;97839.13;;;14.30;nan
9474;BME280;8865;47.636;7.692;2023-05-21T01:04:44;97846.69;;;14.33;nan
9474;BME280;8865;47.636;7.692;2023-05-21T01:07:11;97840.75;;;14.31;nan
9474;BME280;8865;47.636;7.692;2023-05-21T01:09:41;97831.22;;;14.30;nan
9474;BME280;8865;47.636;7.692;2023-05-21T01:12:08;97839.78;;;14.07;nan
9474;BME280;8865;47.636;7.692;2023-05-21T01:14:36;97847.00;;;14.14;nan
9474;BME280;8865;47.636;7.692;2023-05-21T01:17:04;97837.63;;;14.11;nan
9474;BME280;8865;47.636;7.692;2023-05-21T01:19:32;97841.41;;;14.17;nan
9474;BME280;8865;47.636;7.692;2023-05-21T01:22:03;97848.19;;;14.19;nan
9474;BME280;8865;47.636;7.692;2023-05-21T01:24:30;97841.56;;;14.23;nan
9474;BME280;8865;47.636;7.692;2023-05-21T01:27:11;97845.03;;;14.24;nan
9474;BME280;8865;47.636;7.692;2023-05-21T01:29:37;97837.16;;;14.24;nan
9474;BME280;8865;47.636;7.692;2023-05-21T01:32:12;97836.13;;;14.25;nan
9474;BME280;8865;47.636;7.692;2023-05-21T01:34:46;97832.03;;;14.22;nan
9474;BME280;8865;47.636;7.692;2023-05-21T01:37:19;97837.63;;;14.19;nan
9474;BME280;8865;47.636;7.692;2023-05-21T01:39:52;97833.34;;;14.18;nan
9474;BME280;8865;47.636;7.692;2023-05-21T01:42:22;97831.84;;;14.16;nan
9474;BME280;8865;47.636;7.692;2023-05-21T01:44:54;97838.94;;;14.15;nan
9474;BME280;8865;47.636;7.692;2023-05-21T01:47:23;97833.84;;;14.14;nan
9474;BME280;8865;47.636;7.692;2023-05-21T01:49:50;97827.25;;;14.09;nan
9474;BME280;8865;47.636;7.692;2023-05-21T01:52:16;97826.44;;;14.09;nan
9474;BME280;8865;47.636;7.692;2023-05-21T01:54:42;97823.16;;;14.07;nan
9474;BME280;8865;47.636;7.692;2023-05-21T01:57:08;97823.50;;;14.04;nan
9474;BME280;8865;47.636;7.692;2023-05-21T01:59:35;97829.91;;;14.01;nan
9474;BME280;8865;47.636;7.692;2023-05-21T02:02:01;97821.19;;;14.01;nan
9474;BME280;8865;47.636;7.692;2023-05-21T02:04:27;97821.34;;;13.99;nan
9474;BME280;8865;47.636;7.692;2023-05-21T02:06:53;97811.16;;;13.96;nan
9474;BME280;8865;47.636;7.692;2023-05-21T02:09:19;97814.94;;;13.93;nan
9474;BME280;8865;47.636;7.692;2023-05-21T02:11:45;97815.25;;;13.90;nan
9474;BME280;8865;47.636;7.692;2023-05-21T02:14:11;97814.44;;;13.90;nan
9474;BME280;8865;47.636;7.692;2023-05-21T02:16:39;97808.66;;;13.86;nan
9474;BME280;8865;47.636;7.692;2023-05-21T02:19:06;97813.28;;;13.84;nan
9474;BME280;8865;47.636;7.692;2023-05-21T02:21:35;97812.63;;;13.82;nan
9474;BME280;8865;47.636;7.692;2023-05-21T02:24:01;97807.03;;;13.77;nan
9474;BME280;8865;47.636;7.692;2023-05-21T02:26:27;97810.66;;;13.76;nan
9474;BME280;8865;47.636;7.692;2023-05-21T02:28:53;97800.47;;;13.73;nan
9474;BME280;8865;47.636;7.692;2023-05-21T02:31:20;97800.78;;;13.70;nan
9474;BME280;8865;47.636;7.692;2023-05-21T02:33:46;97806.34;;;13.67;nan
9474;BME280;8865;47.636;7.692;2023-05-21T02:36:12;97804.03;;;13.64;nan
9474;BME280;8865;47.636;7.692;2023-05-21T02:38:38;97809.47;;;13.62;nan
9474;BME280;8865;47.636;7.692;2023-05-21T02:41:09;97805.66;;;13.40;nan
9474;BME280;8865;47.636;7.692;2023-05-21T02:43:35;97808.13;;;13.42;nan
9474;BME280;8865;47.636;7.692;2023-05-21T02:46:03;97807.63;;;13.46;nan
9474;BME280;8865;47.636;7.692;2023-05-21T02:48:29;97809.59;;;13.36;nan
9474;BME280;8865;47.636;7.692;2023-05-21T02:50:55;97808.13;;;13.33;nan
9474;BME280;8865;47.636;7.692;2023-05-21T02:53:21;97813.88;;;13.37;nan
9474;BME280;8865;47.636;7.692;2023-05-21T02:55:47;97805.97;;;13.37;nan
9474;BME280;8865;47.636;7.692;2023-05-21T02:58:14;97812.91;;;13.38;nan
9474;BME280;8865;47.636;7.692;2023-05-21T03:00:40;97813.06;;;13.36;nan
9474;BME280;8865;47.636;7.692;2023-05-21T03:03:06;97810.75;;;13.33;nan
9474;BME280;8865;47.636;7.692;2023-05-21T03:05:32;97811.03;;;13.30;nan
9474;BME280;8865;47.636;7.692;2023-05-21T03:07:58;97822.53;;;13.29;nan
9474;BME280;8865;47.636;7.692;2023-05-21T03:10:24;97819.25;;;13.27;nan
9474;BME280;8865;47.636;7.692;2023-05-21T03:12:50;97820.69;;;13.21;nan
9474;BME280;8865;47.636;7.692;2023-05-21T03:15:18;97826.63;;;13.23;nan
9474;BME280;8865;47.636;7.692;2023-05-21T03:17:51;97828.44;;;13.23;nan
9474;BME280;8865;47.636;7.692;2023-05-21T03:20:27;97827.63;;;13.22;nan
9474;BME280;8865;47.636;7.692;2023-05-21T03:22:53;97835.50;;;13.22;nan
9474;BME280;8865;47.636;7.692;2023-05-21T03:25:19;97831.88;;;13.23;nan
9474;BME280;8865;47.636;7.692;2023-05-21T03:27:46;97841.25;;;13.26;nan
9474;BME280;8865;47.636;7.692;2023-05-21T03:30:12;97837.81;;;13.26;nan
9474;BME280;8865;47.636;7.692;2023-05-21T03:32:38;97841.25;;;13.26;nan
9474;BME280;8865;47.636;7.692;2023-05-21T03:35:06;97837.13;;;13.23;nan
9474;BME280;8865;47.636;7.692;2023-05-21T03:37:32;97833.03;;;13.21;nan
9474;BME280;8865;47.636;7.692;2023-05-21T03:39:58;97832.50;;;13.17;nan
9474;BME280;8865;47.636;7.692;2023-05-21T03:42:24;97832.66;;;13.16;nan
9474;BME280;8865;47.636;7.692;2023-05-21T03:44:50;97829.22;;;13.15;nan
9474;BME280;8865;47.636;7.692;2023-05-21T03:47:16;97836.97;;;13.17;nan
9474;BME280;8865;47.636;7.692;2023-05-21T03:49:42;97838.63;;;13.18;nan
9474;BME280;8865;47.636;7.692;2023-05-21T03:52:08;97843.03;;;13.17;nan
9474;BME280;8865;47.636;7.692;2023-05-21T03:54:34;97848.97;;;13.19;nan
9474;BME280;8865;47.636;7.692;2023-05-21T03:57:24;97858.53;;;13.29;nan
9474;BME280;8865;47.636;7.692;2023-05-21T03:59:50;97854.28;;;13.36;nan
9474;BME280;8865;47.636;7.692;2023-05-21T04:02:16;97857.44;;;13.39;nan
9474;BME280;8865;47.636;7.692;2023-05-21T04:04:42;97856.97;;;13.44;nan
9474;BME280;8865;47.636;7.692;2023-05-21T04:07:09;97853.00;;;13.48;nan
9474;BME280;8865;47.636;7.692;2023-05-21T04:09:40;97861.59;;;13.50;nan
9474;BME280;8865;47.636;7.692;2023-05-21T04:12:06;97862.41;;;13.51;nan
9474;BME280;8865;47.636;7.692;2023-05-21T04:14:33;97866.22;;;13.56;nan
9474;BME280;8865;47.636;7.692;2023-05-21T04:16:59;97864.88;;;13.61;nan
9474;BME280;8865;47.636;7.692;2023-05-21T04:19:25;97859.28;;;13.64;nan
9474;BME280;8865;47.636;7.692;2023-05-21T04:21:51;97872.28;;;13.65;nan
9474;BME280;8865;47.636;7.692;2023-05-21T04:24:17;97870.03;;;13.70;nan
9474;BME280;8865;47.636;7.692;2023-05-21T04:26:43;97862.94;;;13.71;nan
9474;BME280;8865;47.636;7.692;2023-05-21T04:29:09;97870.03;;;13.70;nan
9474;BME280;8865;47.636;7.692;2023-05-21T04:31:36;97878.72;;;13.71;nan
9474;BME280;8865;47.636;7.692;2023-05-21T04:34:02;97879.09;;;13.76;nan
9474;BME280;8865;47.636;7.692;2023-05-21T04:36:28;97881.56;;;13.78;nan
9474;BME280;8865;47.636;7.692;2023-05-21T04:38:54;97881.06;;;13.82;nan
9474;BME280;8865;47.636;7.692;2023-05-21T04:41:20;97888.66;;;13.85;nan
9474;BME280;8865;47.636;7.692;2023-05-21T04:43:46;97882.22;;;13.88;nan
9474;BME280;8865;47.636;7.692;2023-05-21T04:46:12;97888.66;;;13.93;nan
9474;BME280;8865;47.636;7.692;2023-05-21T04:48:38;97894.56;;;13.96;nan
9474;BME280;8865;47.636;7.692;2023-05-21T04:51:05;97893.25;;;14.00;nan
9474;BME280;8865;47.636;7.692;2023-05-21T04:53:31;97890.31;;;14.03;nan
9474;BME280;8865;47.636;7.692;2023-05-21T04:55:58;97889.16;;;14.05;nan
9474;BME280;8865;47.636;7.692;2023-05-21T04:58:26;97883.72;;;14.07;nan
9474;BME280;8865;47.636;7.692;2023-05-21T05:00:52;97891.31;;;14.10;nan
9474;BME280;8865;47.636;7.692;2023-05-21T05:03:18;97894.59;;;14.12;nan
9474;BME280;8865;47.636;7.692;2023-05-21T05:05:44;97898.72;;;14.15;nan
9474;BME280;8865;47.636;7.692;2023-05-21T05:08:10;97889.31;;;14.20;nan
9474;BME280;8865;47.636;7.692;2023-05-21T05:10:37;97893.44;;;14.23;nan
9474;BME280;8865;47.636;7.692;2023-05-21T05:13:02;97890.16;;;14.29;nan
9474;BME280;8865;47.636;7.692;2023-05-21T05:15:29;97895.56;;;14.36;nan
9474;BME280;8865;47.636;7.692;2023-05-21T05:17:54;97894.75;;;14.43;nan
9474;BME280;8865;47.636;7.692;2023-05-21T05:20:21;97890.47;;;14.51;nan
9474;BME280;8865;47.636;7.692;2023-05-21T05:22:47;97885.50;;;14.56;nan
9474;BME280;8865;47.636;7.692;2023-05-21T05:25:13;97886.34;;;14.64;nan
9474;BME280;8865;47.636;7.692;2023-05-21T05:27:39;97886.84;;;14.68;nan
9474;BME280;8865;47.636;7.692;2023-05-21T05:30:06;97878.25;;;14.74;nan
9474;BME280;8865;47.636;7.692;2023-05-21T05:32:32;97881.56;;;14.76;nan
9474;BME280;8865;47.636;7.692;2023-05-21T05:34:58;97874.13;;;14.80;nan
9474;BME280;8865;47.636;7.692;2023-05-21T05:37:24;97879.06;;;14.83;nan
9474;BME280;8865;47.636;7.692;2023-05-21T05:39:50;97880.22;;;14.89;nan
9474;BME280;8865;47.636;7.692;2023-05-21T05:42:16;97877.41;;;14.90;nan
9474;BME280;8865;47.636;7.692;2023-05-21T05:44:42;97879.19;;;14.98;nan
9474;BME280;8865;47.636;7.692;2023-05-21T05:47:17;97874.06;;;15.05;nan
9474;BME280;8865;47.636;7.692;2023-05-21T05:49:43;97875.03;;;15.12;nan
9474;BME280;8865;47.636;7.692;2023-05-21T05:52:09;97872.34;;;15.20;nan
9474;BME280;8865;47.636;7.692;2023-05-21T05:54:35;97870.34;;;15.30;nan
9474;BME280;8865;47.636;7.692;2023-05-21T05:57:01;97870.63;;;15.35;nan
9474;BME280;8865;47.636;7.692;2023-05-21T05:59:27;97864.03;;;15.40;nan
9474;BME280;8865;47.636;7.692;2023-05-21T06:01:53;97874.22;;;15.43;nan
9474;BME280;8865;47.636;7.692;2023-05-21T06:04:19;97867.78;;;15.45;nan
9474;BME280;8865;47.636;7.692;2023-05-21T06:06:45;97860.47;;;15.56;nan
9474;BME280;8865;47.636;7.692;2023-05-21T06:09:12;97850.50;;;15.66;nan
9474;BME280;8865;47.636;7.692;2023-05-21T06:11:38;97863.66;;;15.74;nan
9474;BME280;8865;47.636;7.692;2023-05-21T06:14:05;97858.72;;;15.79;nan
9474;BME280;8865;47.636;7.692;2023-05-21T06:37:35;97841.06;;;16.71;nan
9474;BME280;8865;47.636;7.692;2023-05-21T06:40:21;97835.59;;;16.72;nan
9474;BME280;8865;47.636;7.692;2023-05-21T06:42:47;97838.81;;;16.83;nan
9474;BME280;8865;47.636;7.692;2023-05-21T06:45:13;97835.88;;;16.77;nan
9474;BME280;8865;47.636;7.692;2023-05-21T06:47:39;97833.06;;;16.79;nan
9474;BME280;8865;47.636;7.692;2023-05-21T06:50:15;97836.81;;;16.70;nan
9474;BME280;8865;47.636;7.692;2023-05-21T06:52:41;97837.59;;;16.70;nan
9474;BME280;8865;47.636;7.692;2023-05-21T06:55:32;97838.34;;;16.64;nan
9474;BME280;8865;47.636;7.692;2023-05-21T06:57:58;97843.34;;;16.74;nan
9474;BME280;8865;47.636;7.692;2023-05-21T07:00:24;97843.50;;;16.95;nan
9474;BME280;8865;47.636;7.692;2023-05-21T07:02:50;97839.34;;;17.23;nan
9474;BME280;8865;47.636;7.692;2023-05-21T07:05:17;97847.69;;;17.41;nan
9474;BME280;8865;47.636;7.692;2023-05-21T07:07:43;97835.75;;;17.67;nan
9474;BME280;8865;47.636;7.692;2023-05-21T07:10:09;97830.03;;;17.85;nan
9474;BME280;8865;47.636;7.692;2023-05-21T07:12:35;97843.66;;;17.97;nan
9474;BME280;8865;47.636;7.692;2023-05-21T07:15:01;97840.47;;;18.08;nan
9474;BME280;8865;47.636;7.692;2023-05-21T07:17:27;97841.94;;;18.11;nan
9474;BME280;8865;47.636;7.692;2023-05-21T07:19:53;97845.81;;;18.15;nan
9474;BME280;8865;47.636;7.692;2023-05-21T07:22:19;97844.63;;;18.17;nan
9474;BME280;8865;47.636;7.692;2023-05-21T07:24:54;97836.06;;;18.15;nan
9474;BME280;8865;47.636;7.692;2023-05-21T07:27:20;97837.88;;;18.15;nan
9474;BME280;8865;47.636;7.692;2023-05-21T07:29:46;97846.59;;;18.09;nan
9474;BME280;8865;47.636;7.692;2023-05-21T07:32:12;97833.34;;;18.09;nan
9474;BME280;8865;47.636;7.692;2023-05-21T07:34:38;97837.06;;;18.14;nan
9474;BME280;8865;47.636;7.692;2023-05-21T07:37:04;97832.19;;;18.18;nan
9474;BME280;8865;47.636;7.692;2023-05-21T07:39:30;97835.28;;;18.22;nan
9474;BME280;8865;47.636;7.692;2023-05-21T07:41:56;97838.59;;;18.30;nan
9474;BME280;8865;47.636;7.692;2023-05-21T07:44:23;97835.25;;;18.43;nan
9474;BME280;8865;47.636;7.692;2023-05-21T07:46:49;97827.13;;;18.51;nan
9474;BME280;8865;47.636;7.692;2023-05-21T07:49:15;97831.09;;;18.62;nan
9474;BME280;8865;47.636;7.692;2023-05-21T07:51:44;97829.09;;;18.71;nan
9474;BME280;8865;47.636;7.692;2023-05-21T07:54:10;97835.34;;;18.85;nan
9474;BME280;8865;47.636;7.692;2023-05-21T07:56:36;97833.72;;;18.90;nan
9474;BME280;8865;47.636;7.692;2023-05-21T07:59:03;97834.56;;;18.91;nan
9474;BME280;8865;47.636;7.692;2023-05-21T08:01:29;97829.25;;;18.91;nan
9474;BME280;8865;47.636;7.692;2023-05-21T08:03:55;97824.06;;;18.83;nan
9474;BME280;8865;47.636;7.692;2023-05-21T08:06:21;97827.94;;;18.80;nan
9474;BME280;8865;47.636;7.692;2023-05-21T08:08:49;97831.19;;;18.82;nan
9474;BME280;8865;47.636;7.692;2023-05-21T08:11:15;97839.50;;;19.01;nan
9474;BME280;8865;47.636;7.692;2023-05-21T08:13:41;97829.38;;;19.18;nan
9474;BME280;8865;47.636;7.692;2023-05-21T08:16:07;97829.63;;;19.36;nan
9474;BME280;8865;47.636;7.692;2023-05-21T08:18:37;97824.41;;;19.63;nan
9474;BME280;8865;47.636;7.692;2023-05-21T08:21:03;97818.56;;;19.88;nan
9474;BME280;8865;47.636;7.692;2023-05-21T08:23:29;97815.50;;;20.11;nan
9474;BME280;8865;47.636;7.692;2023-05-21T08:25:55;97820.00;;;20.37;nan
9474;BME280;8865;47.636;7.692;2023-05-21T08:28:22;97810.13;;;20.78;nan
9474;BME280;8865;47.636;7.692;2023-05-21T08:30:48;97799.16;;;21.13;nan
9474;BME280;8865;47.636;7.692;2023-05-21T08:33:14;97805.53;;;21.57;nan
9474;BME280;8865;47.636;7.692;2023-05-21T08:36:00;97805.25;;;21.97;nan
9474;BME280;8865;47.636;7.692;2023-05-21T08:38:39;97801.25;;;22.13;nan
9474;BME280;8865;47.636;7.692;2023-05-21T08:41:06;97810.13;;;22.32;nan
9474;BME280;8865;47.636;7.692;2023-05-21T08:43:36;97801.50;;;22.30;nan
9474;BME280;8865;47.636;7.692;2023-05-21T08:49:14;97801.50;;;22.55;nan
9474;BME280;8865;47.636;7.692;2023-05-21T08:51:43;97800.63;;;22.61;nan
9474;BME280;8865;47.636;7.692;2023-05-21T08:54:11;97806.31;;;22.65;nan
9474;BME280;8865;47.636;7.692;2023-05-21T08:56:40;97796.09;;;22.80;nan
9474;BME280;8865;47.636;7.692;2023-05-21T08:59:11;97799.81;;;22.79;nan
9474;BME280;8865;47.636;7.692;2023-05-21T09:01:38;97802.97;;;22.88;nan
9474;BME280;8865;47.636;7.692;2023-05-21T09:04:07;97799.50;;;22.69;nan
9474;BME280;8865;47.636;7.692;2023-05-21T09:06:33;97803.94;;;22.06;nan
9474;BME280;8865;47.636;7.692;2023-05-21T09:09:27;97811.34;;;22.36;nan
9474;BME280;8865;47.636;7.692;2023-05-21T09:12:00;97801.50;;;22.55;nan
9474;BME280;8865;47.636;7.692;2023-05-21T09:14:27;97803.19;;;22.50;nan
9474;BME280;8865;47.636;7.692;2023-05-21T09:16:53;97805.16;;;22.61;nan
9474;BME280;8865;47.636;7.692;2023-05-21T09:19:20;97793.06;;;22.58;nan
9474;BME280;8865;47.636;7.692;2023-05-21T09:21:50;97795.13;;;22.75;nan
9474;BME280;8865;47.636;7.692;2023-05-21T09:24:20;97791.63;;;22.74;nan
9474;BME280;8865;47.636;7.692;2023-05-21T09:26:47;97798.25;;;22.90;nan
9474;BME280;8865;47.636;7.692;2023-05-21T09:29:13;97803.38;;;22.92;nan
9474;BME280;8865;47.636;7.692;2023-05-21T09:31:43;97801.41;;;22.99;nan
9474;BME280;8865;47.636;7.692;2023-05-21T09:34:12;97802.75;;;23.08;nan
9474;BME280;8865;47.636;7.692;2023-05-21T09:36:41;97794.94;;;23.13;nan
9474;BME280;8865;47.636;7.692;2023-05-21T09:39:08;97800.84;;;22.97;nan
9474;BME280;8865;47.636;7.692;2023-05-21T09:41:36;97791.81;;;22.61;nan
9474;BME280;8865;47.636;7.692;2023-05-21T09:44:03;97791.94;;;22.66;nan
9474;BME280;8865;47.636;7.692;2023-05-21T09:46:39;97794.75;;;22.90;nan
9474;BME280;8865;47.636;7.692;2023-05-21T09:49:05;97793.28;;;22.75;nan
9474;BME280;8865;47.636;7.692;2023-05-21T09:51:32;97794.78;;;23.27;nan
9474;BME280;8865;47.636;7.692;2023-05-21T09:53:58;97797.81;;;23.12;nan
9474;BME280;8865;47.636;7.692;2023-05-21T09:56:26;97792.22;;;23.32;nan
9474;BME280;8865;47.636;7.692;2023-05-21T09:58:55;97789.91;;;23.66;nan
9474;BME280;8865;47.636;7.692;2023-05-21T10:01:22;97785.50;;;23.83;nan
9474;BME280;8865;47.636;7.692;2023-05-21T10:04:00;97785.97;;;23.80;nan
9474;BME280;8865;47.636;7.692;2023-05-21T10:06:28;97775.22;;;23.57;nan
9474;BME280;8865;47.636;7.692;2023-05-21T10:08:56;97777.97;;;23.38;nan
9474;BME280;8865;47.636;7.692;2023-05-21T10:11:29;97778.16;;;23.67;nan
9474;BME280;8865;47.636;7.692;2023-05-21T10:14:21;97768.94;;;23.93;nan
9474;BME280;8865;47.636;7.692;2023-05-21T10:16:48;97767.78;;;24.13;nan
9474;BME280;8865;47.636;7.692;2023-05-21T10:19:17;97769.75;;;24.76;nan
9474;BME280;8865;47.636;7.692;2023-05-21T10:21:45;97766.69;;;24.96;nan
9474;BME280;8865;47.636;7.692;2023-05-21T10:24:12;97765.31;;;25.35;nan
9474;BME280;8865;47.636;7.692;2023-05-21T10:26:40;97766.03;;;25.30;nan
9474;BME280;8865;47.636;7.692;2023-05-21T10:29:06;97757.47;;;25.62;nan
9474;BME280;8865;47.636;7.692;2023-05-21T10:31:33;97759.34;;;26.85;nan
9474;BME280;8865;47.636;7.692;2023-05-21T10:34:00;97755.53;;;27.53;nan
9474;BME280;8865;47.636;7.692;2023-05-21T10:36:29;97750.84;;;28.03;nan
9474;BME280;8865;47.636;7.692;2023-05-21T10:38:57;97746.75;;;28.85;nan
9474;BME280;8865;47.636;7.692;2023-05-21T10:41:26;97746.91;;;30.55;nan
9474;BME280;8865;47.636;7.692;2023-05-21T10:49:29;97737.00;;;32.92;nan
9474;BME280;8865;47.636;7.692;2023-05-21T10:58:12;97727.50;;;34.17;nan
9474;BME280;8865;47.636;7.692;2023-05-21T11:00:44;97725.78;;;34.22;nan
9474;BME280;8865;47.636;7.692;2023-05-21T11:03:11;97727.25;;;35.62;nan
9474;BME280;8865;47.636;7.692;2023-05-21T11:08:46;97725.06;;;34.77;nan
9474;BME280;8865;47.636;7.692;2023-05-21T11:11:12;97718.66;;;35.46;nan
9474;BME280;8865;47.636;7.692;2023-05-21T11:13:58;97720.19;;;36.77;nan
9474;BME280;8865;47.636;7.692;2023-05-21T11:16:25;97720.56;;;35.90;nan
9474;BME280;8865;47.636;7.692;2023-05-21T11:21:21;97714.88;;;36.81;nan
9474;BME280;8865;47.636;7.692;2023-05-21T11:26:17;97711.78;;;38.05;nan
9474;BME280;8865;47.636;7.692;2023-05-21T11:28:44;97705.19;;;38.83;nan
9474;BME280;8865;47.636;7.692;2023-05-21T11:31:26;97704.50;;;38.56;nan
9474;BME280;8865;47.636;7.692;2023-05-21T11:36:41;97695.66;;;38.21;nan
9474;BME280;8865;47.636;7.692;2023-05-21T11:39:15;97699.81;;;38.27;nan
9474;BME280;8865;47.636;7.692;2023-05-21T11:44:45;97697.31;;;36.16;nan
9474;BME280;8865;47.636;7.692;2023-05-21T11:47:14;97697.91;;;35.81;nan
9474;BME280;8865;47.636;7.692;2023-05-21T11:49:41;97697.50;;;35.74;nan
9474;BME280;8865;47.636;7.692;2023-05-21T11:52:08;97691.22;;;36.19;nan
9474;BME280;8865;47.636;7.692;2023-05-21T11:54:43;97698.56;;;36.09;nan
9474;BME280;8865;47.636;7.692;2023-05-21T11:57:17;97691.97;;;36.10;nan
9474;BME280;8865;47.636;7.692;2023-05-21T11:59:44;97687.88;;;35.90;nan
9474;BME280;8865;47.636;7.692;2023-05-21T12:02:15;97685.41;;;36.11;nan
9474;BME280;8865;47.636;7.692;2023-05-21T12:04:42;97689.44;;;36.14;nan
9474;BME280;8865;47.636;7.692;2023-05-21T12:07:09;97692.41;;;36.35;nan
9474;BME280;8865;47.636;7.692;2023-05-21T12:09:40;97687.06;;;36.70;nan
9474;BME280;8865;47.636;7.692;2023-05-21T12:12:11;97683.34;;;36.57;nan
9474;BME280;8865;47.636;7.692;2023-05-21T12:14:41;97683.25;;;36.00;nan
9474;BME280;8865;47.636;7.692;2023-05-21T12:17:08;97678.19;;;36.07;nan
9474;BME280;8865;47.636;7.692;2023-05-21T12:19:38;97669.94;;;35.98;nan
9474;BME280;8865;47.636;7.692;2023-05-21T12:22:05;97682.81;;;35.52;nan
9474;BME280;8865;47.636;7.692;2023-05-21T12:24:33;97680.72;;;34.48;nan
9474;BME280;8865;47.636;7.692;2023-05-21T12:27:01;97684.50;;;34.06;nan
9474;BME280;8865;47.636;7.692;2023-05-21T12:29:29;97674.53;;;33.68;nan
9474;BME280;8865;47.636;7.692;2023-05-21T12:32:00;97680.81;;;33.50;nan
9474;BME280;8865;47.636;7.692;2023-05-21T12:37:09;97685.47;;;33.49;nan
9474;BME280;8865;47.636;7.692;2023-05-21T12:39:43;97692.66;;;33.40;nan
9474;BME280;8865;47.636;7.692;2023-05-21T12:42:09;97696.47;;;33.39;nan
9474;BME280;8865;47.636;7.692;2023-05-21T12:44:38;97700.72;;;33.07;nan
9474;BME280;8865;47.636;7.692;2023-05-21T12:47:33;97701.47;;;32.45;nan
9474;BME280;8865;47.636;7.692;2023-05-21T12:50:06;97707.03;;;31.76;nan
9474;BME280;8865;47.636;7.692;2023-05-21T12:52:32;97699.59;;;31.18;nan
9474;BME280;8865;47.636;7.692;2023-05-21T12:54:59;97694.91;;;30.84;nan
9474;BME280;8865;47.636;7.692;2023-05-21T12:57:27;97689.31;;;30.60;nan
9474;BME280;8865;47.636;7.692;2023-05-21T13:00:00;97698.28;;;30.45;nan
9474;BME280;8865;47.636;7.692;2023-05-21T13:02:28;97697.94;;;30.67;nan
9474;BME280;8865;47.636;7.692;2023-05-21T13:04:58;97693.56;;;31.26;nan
9474;BME280;8865;47.636;7.692;2023-05-21T13:07:26;97696.66;;;32.18;nan
9474;BME280;8865;47.636;7.692;2023-05-21T13:09:52;97687.72;;;32.66;nan
9474;BME280;8865;47.636;7.692;2023-05-21T13:12:20;97675.44;;;33.11;nan
9474;BME280;8865;47.636;7.692;2023-05-21T13:14:48;97681.41;;;33.46;nan
9474;BME280;8865;47.636;7.692;2023-05-21T13:17:15;97667.69;;;33.76;nan
9474;BME280;8865;47.636;7.692;2023-05-21T13:19:41;97674.66;;;34.24;nan
9474;BME280;8865;47.636;7.692;2023-05-21T13:22:07;97673.44;;;34.72;nan
9474;BME280;8865;47.636;7.692;2023-05-21T13:24:37;97674.06;;;35.19;nan
9474;BME280;8865;47.636;7.692;2023-05-21T13:27:04;97676.56;;;35.52;nan
9474;BME280;8865;47.636;7.692;2023-05-21T13:29:30;97677.91;;;35.63;nan
9474;BME280;8865;47.636;7.692;2023-05-21T13:31:56;97669.78;;;35.72;nan
9474;BME280;8865;47.636;7.692;2023-05-21T13:34:22;97667.69;;;35.46;nan
9474;BME280;8865;47.636;7.692;2023-05-21T13:36:50;97670.78;;;35.31;nan
9474;BME280;8865;47.636;7.692;2023-05-21T13:39:16;97666.28;;;35.26;nan
9474;BME280;8865;47.636;7.692;2023-05-21T13:41:42;97671.34;;;35.41;nan
9474;BME280;8865;47.636;7.692;2023-05-21T13:44:08;97661.16;;;35.47;nan
9474;BME280;8865;47.636;7.692;2023-05-21T13:46:34;97664.66;;;35.70;nan
9474;BME280;8865;47.636;7.692;2023-05-21T13:49:04;97655.75;;;35.79;nan
9474;BME280;8865;47.636;7.692;2023-05-21T13:51:31;97659.34;;;35.65;nan
9474;BME280;8865;47.636;7.692;2023-05-21T13:53:57;97656.91;;;35.18;nan
9474;BME280;8865;47.636;7.692;2023-05-21T13:56:23;97654.63;;;34.61;nan
9474;BME280;8865;47.636;7.692;2023-05-21T13:58:49;97647.56;;;34.18;nan
9474;BME280;8865;47.636;7.692;2023-05-21T14:01:15;97652.06;;;33.81;nan
9474;BME280;8865;47.636;7.692;2023-05-21T14:03:41;97650.06;;;33.54;nan
9474;BME280;8865;47.636;7.692;2023-05-21T14:06:07;97645.72;;;33.39;nan
9474;BME280;8865;47.636;7.692;2023-05-21T14:08:33;97641.28;;;33.43;nan
9474;BME280;8865;47.636;7.692;2023-05-21T14:10:59;97641.22;;;33.49;nan
9474;BME280;8865;47.636;7.692;2023-05-21T14:13:26;97635.41;;;33.22;nan
9474;BME280;8865;47.636;7.692;2023-05-21T14:15:52;97629.81;;;33.14;nan
9474;BME280;8865;47.636;7.692;2023-05-21T14:18:18;97632.84;;;32.93;nan
9474;BME280;8865;47.636;7.692;2023-05-21T14:20:44;97634.34;;;32.80;nan
9474;BME280;8865;47.636;7.692;2023-05-21T14:23:10;97629.50;;;32.58;nan
9474;BME280;8865;47.636;7.692;2023-05-21T14:25:36;97626.97;;;32.43;nan
9474;BME280;8865;47.636;7.692;2023-05-21T14:28:02;97617.63;;;32.30;nan
9474;BME280;8865;47.636;7.692;2023-05-21T14:30:28;97620.78;;;32.18;nan
9474;BME280;8865;47.636;7.692;2023-05-21T14:32:54;97619.50;;;32.10;nan
9474;BME280;8865;47.636;7.692;2023-05-21T14:35:22;97615.22;;;32.04;nan
9474;BME280;8865;47.636;7.692;2023-05-21T14:37:48;97625.38;;;31.93;nan
9474;BME280;8865;47.636;7.692;2023-05-21T14:40:14;97613.00;;;31.82;nan